createdAt,value
2018-04-24T00:00:33.411Z,82.30
2018-04-24T00:03:02.514Z,82.50
2018-04-24T00:05:31.575Z,82.50
2018-04-24T00:08:00.568Z,82.50
2018-04-24T00:10:28.873Z,82.40
2018-04-24T00:12:57.180Z,82.30
2018-04-24T00:15:25.605Z,82.30
2018-04-24T00:17:53.879Z,82.30
2018-04-24T00:20:22.213Z,82.10
2018-04-24T00:22:51.265Z,82.00
2018-04-24T00:25:19.525Z,82.10
2018-04-24T00:27:47.827Z,82.80
2018-04-24T00:30:16.875Z,82.10
2018-04-24T00:32:46.005Z,81.60
2018-04-24T00:35:14.260Z,82.10
2018-04-24T00:37:42.562Z,82.00
2018-04-24T00:40:10.863Z,82.10
2018-04-24T00:42:39.178Z,81.90
2018-04-24T00:45:07.455Z,81.80
2018-04-24T00:47:35.762Z,81.80
2018-04-24T00:50:04.033Z,81.90
2018-04-24T00:52:32.311Z,81.60
2018-04-24T00:55:00.618Z,81.50
2018-04-24T00:57:29.738Z,81.60
2018-04-24T00:59:58.035Z,81.60
2018-04-24T01:02:26.330Z,81.60
2018-04-24T01:04:54.607Z,81.60
2018-04-24T01:07:22.894Z,81.60
2018-04-24T01:09:51.222Z,81.50
2018-04-24T01:12:20.293Z,81.40
2018-04-24T01:14:48.565Z,81.40
2018-04-24T01:17:16.893Z,81.50
2018-04-24T01:19:45.990Z,81.70
2018-04-24T01:22:14.344Z,81.70
2018-04-24T01:24:42.627Z,81.60
2018-04-24T01:27:10.899Z,81.60
2018-04-24T01:29:39.198Z,81.60
2018-04-24T01:32:08.249Z,81.50
2018-04-24T01:34:36.558Z,81.50
2018-04-24T01:37:04.825Z,81.50
2018-04-24T01:39:33.116Z,81.50
2018-04-24T01:42:03.090Z,81.40
2018-04-24T01:44:31.390Z,81.40
2018-04-24T01:46:59.669Z,82.20
2018-04-24T01:49:27.994Z,81.40
2018-04-24T01:51:56.256Z,81.40
2018-04-24T01:54:25.320Z,81.30
2018-04-24T01:56:53.616Z,81.30
2018-04-24T01:59:21.874Z,81.30
2018-04-24T02:01:50.182Z,81.20
2018-04-24T02:04:19.224Z,81.10
2018-04-24T02:06:47.514Z,81.00
2018-04-24T02:09:16.226Z,81.20
2018-04-24T02:11:44.535Z,81.20
2018-04-24T02:14:13.699Z,80.90
2018-04-24T02:16:41.953Z,80.90
2018-04-24T02:19:10.248Z,80.80
2018-04-24T02:21:38.519Z,81.60
2018-04-24T02:24:06.886Z,81.00
2018-04-24T02:26:35.247Z,80.90
2018-04-24T02:29:03.605Z,80.90
2018-04-24T02:31:31.906Z,80.80
2018-04-24T02:34:00.158Z,80.70
2018-04-24T02:36:28.478Z,80.70
2018-04-24T02:38:56.776Z,80.70
2018-04-24T02:41:25.069Z,80.80
2018-04-24T02:43:53.328Z,80.80
2018-04-24T02:46:21.629Z,80.80
2018-04-24T02:48:50.680Z,80.90
2018-04-24T02:51:18.974Z,80.80
2018-04-24T02:53:47.252Z,81.50
2018-04-24T02:56:15.798Z,80.80
2018-04-24T02:58:44.227Z,80.90
2018-04-24T03:01:12.504Z,80.70
2018-04-24T03:03:40.794Z,80.70
2018-04-24T03:06:09.074Z,80.70
2018-04-24T03:08:38.155Z,80.50
2018-04-24T03:11:06.410Z,80.40
2018-04-24T03:13:34.722Z,80.40
2018-04-24T03:16:03.022Z,80.40
2018-04-24T03:18:32.083Z,80.40
2018-04-24T03:21:00.329Z,80.30
2018-04-24T03:23:28.650Z,80.30
2018-04-24T03:25:56.926Z,80.40
2018-04-24T03:28:25.208Z,80.30
2018-04-24T03:30:53.498Z,80.40
2018-04-24T03:33:22.545Z,80.10
2018-04-24T03:35:50.841Z,80.10
2018-04-24T03:38:19.090Z,80.10
2018-04-24T03:40:47.385Z,80.10
2018-04-24T03:43:15.709Z,80.00
2018-04-24T03:45:44.777Z,79.90
2018-04-24T03:48:13.064Z,80.00
2018-04-24T03:50:41.334Z,79.90
2018-04-24T03:53:09.655Z,80.00
2018-04-24T03:55:37.936Z,80.00
2018-04-24T03:58:06.250Z,80.10
2018-04-24T04:00:34.509Z,80.20
2018-04-24T04:03:02.805Z,80.40
2018-04-24T04:05:31.057Z,80.30
2018-04-24T04:07:59.369Z,80.40
2018-04-24T04:10:27.646Z,80.50
2018-04-24T04:12:55.921Z,80.50
2018-04-24T04:15:24.345Z,80.50
2018-04-24T04:18:04.421Z,80.60
2018-04-24T04:20:44.500Z,80.70
2018-04-24T04:23:26.171Z,80.80
2018-04-24T04:25:55.330Z,80.80
2018-04-24T04:28:23.620Z,80.80
2018-04-24T04:30:52.698Z,81.10
2018-04-24T04:33:20.974Z,81.00
2018-04-24T04:35:49.295Z,81.10
2018-04-24T04:38:17.645Z,81.20
2018-04-24T04:40:45.926Z,81.30
2018-04-24T04:43:15.006Z,81.30
2018-04-24T04:45:44.062Z,81.30
2018-04-24T04:48:12.370Z,81.30
2018-04-24T04:50:40.655Z,81.40
2018-04-24T04:53:08.991Z,81.40
2018-04-24T04:55:37.246Z,81.50
2018-04-24T04:58:05.521Z,81.40
2018-04-24T05:00:33.819Z,81.40
2018-04-24T05:03:02.071Z,81.40
2018-04-24T05:05:31.144Z,81.50
2018-04-24T05:08:00.200Z,81.50
2018-04-24T05:10:29.041Z,81.50
2018-04-24T05:12:57.330Z,81.60
2018-04-24T05:15:26.389Z,81.60
2018-04-24T05:17:54.684Z,81.60
2018-04-24T05:20:22.969Z,81.60
2018-04-24T05:22:51.345Z,81.50
2018-04-24T05:25:19.632Z,81.50
2018-04-24T05:27:48.820Z,81.90
2018-04-24T05:30:17.133Z,81.30
2018-04-24T05:32:45.413Z,81.30
2018-04-24T05:35:14.482Z,81.00
2018-04-24T05:37:43.557Z,81.00
2018-04-24T05:40:12.611Z,81.20
2018-04-24T05:42:40.949Z,81.10
2018-04-24T05:45:09.266Z,80.90
2018-04-24T05:47:37.543Z,80.90
2018-04-24T05:50:05.882Z,80.80
2018-04-24T05:52:34.171Z,80.70
2018-04-24T05:55:03.225Z,80.50
2018-04-24T05:57:31.561Z,80.50
2018-04-24T05:59:59.889Z,80.30
2018-04-24T06:02:28.279Z,80.00
2018-04-24T06:04:56.606Z,79.80
2018-04-24T06:07:24.933Z,79.70
2018-04-24T06:09:53.232Z,79.30
2018-04-24T06:12:21.527Z,78.80
2018-04-24T06:14:49.850Z,78.50
2018-04-24T06:17:18.118Z,78.30
2018-04-24T06:19:46.421Z,78.00
2018-04-24T06:22:15.465Z,77.20
2018-04-24T06:24:43.790Z,77.20
2018-04-24T06:27:12.054Z,77.20
2018-04-24T06:29:40.345Z,76.80
2018-04-24T06:32:08.718Z,76.60
2018-04-24T06:34:37.040Z,77.00
2018-04-24T06:37:05.355Z,75.60
2018-04-24T06:39:33.638Z,74.90
2018-04-24T06:42:01.941Z,74.20
2018-04-24T06:44:30.233Z,73.70
2018-04-24T06:46:58.585Z,73.20
2018-04-24T06:49:26.858Z,72.70
2018-04-24T06:51:55.134Z,72.60
2018-04-24T06:54:23.559Z,72.60
2018-04-24T06:56:51.832Z,72.60
2018-04-24T06:59:20.181Z,72.30
2018-04-24T07:01:48.546Z,72.20
2018-04-24T07:04:16.853Z,72.20
2018-04-24T07:06:45.125Z,72.30
2018-04-24T07:09:13.397Z,72.20
2018-04-24T07:11:41.679Z,71.90
2018-04-24T07:14:09.980Z,71.50
2018-04-24T07:16:38.305Z,71.20
2018-04-24T07:19:06.589Z,70.90
2018-04-24T07:21:34.877Z,70.70
2018-04-24T07:24:03.138Z,70.90
2018-04-24T07:26:31.448Z,71.10
2018-04-24T07:28:59.733Z,70.90
2018-04-24T07:31:28.009Z,69.80
2018-04-24T07:33:56.303Z,69.30
2018-04-24T07:36:24.589Z,69.00
2018-04-24T07:38:52.901Z,69.20
2018-04-24T07:41:21.188Z,69.30
2018-04-24T07:43:49.480Z,69.00
2018-04-24T07:46:17.753Z,68.70
2018-04-24T07:48:46.096Z,68.50
2018-04-24T07:51:15.133Z,67.80
2018-04-24T07:53:43.410Z,67.70
2018-04-24T07:56:11.715Z,66.90
2018-04-24T07:58:40.039Z,66.10
2018-04-24T08:01:08.323Z,65.80
2018-04-24T08:03:36.634Z,65.00
2018-04-24T08:06:04.924Z,64.10
2018-04-24T08:08:33.200Z,63.10
2018-04-24T08:11:01.493Z,62.30
2018-04-24T08:13:29.825Z,61.40
2018-04-24T08:15:58.112Z,60.60
2018-04-24T08:18:26.501Z,60.10
2018-04-24T08:20:54.771Z,60.10
2018-04-24T08:23:23.059Z,59.70
2018-04-24T08:25:51.363Z,59.50
2018-04-24T08:28:19.686Z,58.50
2018-04-24T08:30:47.983Z,58.00
2018-04-24T08:33:16.299Z,57.30
2018-04-24T08:35:44.602Z,56.50
2018-04-24T08:38:13.652Z,55.10
2018-04-24T08:40:41.970Z,55.00
2018-04-24T08:43:11.024Z,54.60
2018-04-24T08:45:39.363Z,54.60
2018-04-24T08:48:07.690Z,54.50
2018-04-24T08:50:35.969Z,54.30
2018-04-24T08:53:04.321Z,54.30
2018-04-24T08:55:32.616Z,54.30
2018-04-24T08:58:00.962Z,54.40
2018-04-24T09:00:29.236Z,54.40
2018-04-24T09:02:58.325Z,54.10
2018-04-24T09:05:27.372Z,54.10
2018-04-24T09:07:55.710Z,54.10
2018-04-24T09:10:23.984Z,54.10
2018-04-24T09:12:52.261Z,54.30
2018-04-24T09:15:20.560Z,54.70
2018-04-24T09:17:48.844Z,53.70
2018-04-24T09:20:17.141Z,53.90
2018-04-24T09:22:45.501Z,53.90
2018-04-24T09:25:13.817Z,54.20
2018-04-24T09:27:42.127Z,54.10
2018-04-24T09:30:10.952Z,54.10
2018-04-24T09:32:39.250Z,54.00
2018-04-24T09:35:08.302Z,53.50
2018-04-24T09:37:36.632Z,53.40
2018-04-24T09:40:04.917Z,52.90
2018-04-24T09:42:33.246Z,52.60
2018-04-24T09:45:01.583Z,52.10
2018-04-24T09:47:29.911Z,51.80
2018-04-24T09:49:58.219Z,52.10
2018-04-24T09:52:26.522Z,51.20
2018-04-24T09:54:54.808Z,50.90
2018-04-24T09:57:23.125Z,50.30
2018-04-24T09:59:51.424Z,49.90
2018-04-24T10:02:19.720Z,49.40
2018-04-24T10:04:47.974Z,48.80
2018-04-24T10:07:16.247Z,48.40
2018-04-24T10:09:44.602Z,47.70
2018-04-24T10:12:13.633Z,46.40
2018-04-24T10:14:41.951Z,46.40
2018-04-24T10:17:11.084Z,46.10
2018-04-24T10:19:39.393Z,45.90
2018-04-24T10:22:07.695Z,45.90
2018-04-24T10:24:35.960Z,45.80
2018-04-24T10:27:04.242Z,45.40
2018-04-24T10:29:32.617Z,45.40
2018-04-24T10:32:00.915Z,45.30
2018-04-24T10:34:29.179Z,45.30
2018-04-24T10:36:58.215Z,45.80
2018-04-24T10:39:27.293Z,45.70
2018-04-24T10:41:56.335Z,44.60
2018-04-24T10:44:24.620Z,44.60
2018-04-24T10:46:52.896Z,44.20
2018-04-24T10:49:21.194Z,44.20
2018-04-24T10:51:49.578Z,44.10
2018-04-24T10:54:18.558Z,43.80
2018-04-24T10:56:46.841Z,43.80
2018-04-24T10:59:15.163Z,43.50
2018-04-24T11:01:43.491Z,43.60
2018-04-24T11:04:11.804Z,43.70
2018-04-24T11:06:40.138Z,43.90
2018-04-24T11:09:08.395Z,44.30
2018-04-24T11:11:36.699Z,44.10
2018-04-24T11:14:04.957Z,44.10
2018-04-24T11:16:33.314Z,43.50
2018-04-24T11:19:02.337Z,43.00
2018-04-24T11:21:30.695Z,43.10
2018-04-24T11:23:58.993Z,43.40
2018-04-24T11:26:27.311Z,43.20
2018-04-24T11:28:55.655Z,43.40
2018-04-24T11:31:23.913Z,42.10
2018-04-24T11:33:52.275Z,40.80
2018-04-24T11:36:21.294Z,39.90
2018-04-24T11:38:49.593Z,39.90
2018-04-24T11:41:17.946Z,40.90
2018-04-24T11:43:46.229Z,40.20
2018-04-24T11:46:15.259Z,39.70
2018-04-24T11:48:43.523Z,39.70
2018-04-24T11:51:11.847Z,39.60
2018-04-24T11:53:40.883Z,39.90
2018-04-24T11:56:09.181Z,39.90
2018-04-24T11:58:37.486Z,39.40
2018-04-24T12:01:05.817Z,39.60
2018-04-24T12:03:34.089Z,38.70
2018-04-24T12:06:03.184Z,37.70
2018-04-24T12:08:31.438Z,37.60
2018-04-24T12:11:00.515Z,37.80
2018-04-24T12:13:28.791Z,37.80
2018-04-24T12:15:57.072Z,38.30
2018-04-24T12:18:25.354Z,38.50
2018-04-24T12:20:54.455Z,38.30
2018-04-24T12:23:23.542Z,38.20
2018-04-24T12:25:51.812Z,38.20
2018-04-24T12:28:20.119Z,38.00
2018-04-24T12:30:49.150Z,38.40
2018-04-24T12:33:17.430Z,38.40
2018-04-24T12:35:45.752Z,38.70
2018-04-24T12:38:14.035Z,39.00
2018-04-24T12:40:42.333Z,38.80
2018-04-24T12:43:10.624Z,38.50
2018-04-24T12:45:38.963Z,38.60
2018-04-24T12:48:07.213Z,39.20
2018-04-24T12:50:35.514Z,38.90
2018-04-24T12:53:03.789Z,38.20
2018-04-24T12:55:32.045Z,38.10
2018-04-24T12:58:00.326Z,38.40
2018-04-24T13:00:28.596Z,38.00
2018-04-24T13:02:56.895Z,38.00
2018-04-24T13:05:25.151Z,38.10
2018-04-24T13:07:53.458Z,37.90
2018-04-24T13:10:21.806Z,38.20
2018-04-24T13:12:50.063Z,38.40
2018-04-24T13:15:18.362Z,38.60
2018-04-24T13:17:46.681Z,38.90
2018-04-24T13:20:15.080Z,38.80
2018-04-24T13:22:43.333Z,39.00
2018-04-24T13:25:11.625Z,38.90
2018-04-24T13:27:39.952Z,39.20
2018-04-24T13:30:08.254Z,39.50
2018-04-24T13:32:36.502Z,39.50
2018-04-24T13:35:04.757Z,39.70
2018-04-24T13:37:33.055Z,39.70
2018-04-24T13:40:01.400Z,39.80
2018-04-24T13:42:30.529Z,40.40
2018-04-24T13:44:59.023Z,40.40
2018-04-24T13:47:28.292Z,40.10
2018-04-24T13:49:56.629Z,40.10
2018-04-24T13:52:25.868Z,40.50
2018-04-24T13:54:54.250Z,40.40
2018-04-24T13:57:23.392Z,40.60
2018-04-24T13:59:52.728Z,40.70
2018-04-24T14:02:21.046Z,40.10
2018-04-24T14:04:49.422Z,40.10
2018-04-24T14:07:17.955Z,40.60
2018-04-24T14:09:47.122Z,41.00
2018-04-24T14:12:15.583Z,41.00
2018-04-24T14:14:43.862Z,41.00
2018-04-24T14:17:14.054Z,41.90
2018-04-24T14:19:43.367Z,41.50
2018-04-24T14:22:11.811Z,41.80
2018-04-24T14:24:42.191Z,42.00
2018-04-24T14:27:10.588Z,42.40
2018-04-24T14:29:39.035Z,42.20
2018-04-24T14:32:07.783Z,42.10
2018-04-24T14:34:36.318Z,42.00
2018-04-24T14:37:04.680Z,41.70
2018-04-24T14:39:33.264Z,41.70
2018-04-24T14:42:02.506Z,41.90
2018-04-24T14:44:30.945Z,42.00
2018-04-24T14:47:00.032Z,41.70
2018-04-24T14:49:28.570Z,41.30
2018-04-24T14:51:57.392Z,41.20
2018-04-24T14:54:25.912Z,41.00
2018-04-24T14:56:55.002Z,40.70
2018-04-24T14:59:23.486Z,40.70
2018-04-24T15:01:51.965Z,40.70
2018-04-24T15:04:20.408Z,40.70
2018-04-24T15:06:48.870Z,40.90
2018-04-24T15:09:17.235Z,40.90
2018-04-24T15:11:46.364Z,40.70
2018-04-24T15:14:14.765Z,40.70
2018-04-24T15:16:43.130Z,40.90
2018-04-24T15:19:11.888Z,41.20
2018-04-24T15:21:41.148Z,41.30
2018-04-24T15:24:10.395Z,41.40
2018-04-24T15:26:38.754Z,41.40
2018-04-24T15:29:07.198Z,41.40
2018-04-24T15:31:37.800Z,41.60
2018-04-24T15:34:07.847Z,41.60
2018-04-24T15:36:36.650Z,41.70
2018-04-24T15:39:06.117Z,41.90
2018-04-24T15:41:34.539Z,42.00
2018-04-24T15:44:03.083Z,42.10
2018-04-24T15:46:31.664Z,42.40
2018-04-24T15:49:00.297Z,42.50
2018-04-24T15:51:28.668Z,42.60
2018-04-24T15:53:57.104Z,43.00
2018-04-24T15:56:25.396Z,42.90
2018-04-24T15:58:53.710Z,43.00
2018-04-24T16:01:22.014Z,43.30
2018-04-24T16:03:50.358Z,43.50
2018-04-24T16:06:18.771Z,43.80
2018-04-24T16:08:47.800Z,43.80
2018-04-24T16:11:16.096Z,43.80
2018-04-24T16:13:44.469Z,44.10
2018-04-24T16:16:12.710Z,44.50
2018-04-24T16:18:41.787Z,44.50
2018-04-24T16:21:10.168Z,44.70
2018-04-24T16:23:38.580Z,44.70
2018-04-24T16:26:06.895Z,44.90
2018-04-24T16:28:36.153Z,44.90
2018-04-24T16:31:04.501Z,44.90
2018-04-24T16:33:32.965Z,44.90
2018-04-24T16:36:03.520Z,45.00
2018-04-24T16:38:32.731Z,45.30
2018-04-24T16:41:03.224Z,45.30
2018-04-24T16:43:31.502Z,45.30
2018-04-24T16:46:02.370Z,45.60
2018-04-24T16:48:30.778Z,45.90
2018-04-24T16:50:59.198Z,46.10
2018-04-24T16:53:27.550Z,46.40
2018-04-24T16:55:55.883Z,46.60
2018-04-24T16:58:24.185Z,46.90
2018-04-24T17:00:52.656Z,46.90
2018-04-24T17:03:20.942Z,47.00
2018-04-24T17:05:49.291Z,47.00
2018-04-24T17:08:17.685Z,47.00
2018-04-24T17:10:45.986Z,47.10
2018-04-24T17:13:14.329Z,47.20
2018-04-24T17:15:42.788Z,47.30
2018-04-24T17:18:11.117Z,47.30
2018-04-24T17:20:40.287Z,47.40
2018-04-24T17:23:09.737Z,47.40
2018-04-24T17:25:38.101Z,47.70
2018-04-24T17:28:06.474Z,47.90
2018-04-24T17:30:35.767Z,47.90
2018-04-24T17:33:04.112Z,48.00
2018-04-24T17:35:32.436Z,48.30
2018-04-24T17:38:00.874Z,48.30
2018-04-24T17:40:29.278Z,48.40
2018-04-24T17:42:57.615Z,48.50
2018-04-24T17:45:25.909Z,49.10
2018-04-24T17:47:54.305Z,48.60
2018-04-24T17:50:22.661Z,48.80
2018-04-24T17:52:51.226Z,48.80
2018-04-24T17:55:19.641Z,48.80
2018-04-24T17:57:48.123Z,48.90
2018-04-24T18:00:16.829Z,48.90
2018-04-24T18:02:45.141Z,49.20
2018-04-24T18:05:13.453Z,48.90
2018-04-24T18:07:41.866Z,48.90
2018-04-24T18:10:10.355Z,48.90
2018-04-24T18:12:39.006Z,49.20
2018-04-24T18:15:08.379Z,49.50
2018-04-24T18:17:36.702Z,49.70
2018-04-24T18:20:05.152Z,49.90
2018-04-24T18:22:34.115Z,50.30
2018-04-24T18:25:03.316Z,50.60
2018-04-24T18:27:32.529Z,50.70
2018-04-24T18:30:01.774Z,51.10
2018-04-24T18:32:35.850Z,51.10
2018-04-24T18:35:04.831Z,51.20
2018-04-24T18:37:34.904Z,51.40
2018-04-24T18:40:03.261Z,51.50
2018-04-24T18:42:31.647Z,51.50
2018-04-24T18:44:59.926Z,51.60
2018-04-24T18:47:28.250Z,51.90
2018-04-24T18:49:56.518Z,52.10
2018-04-24T18:52:24.856Z,52.20
2018-04-24T18:54:53.570Z,52.40
2018-04-24T18:57:23.061Z,52.80
2018-04-24T18:59:54.603Z,52.90
2018-04-24T19:02:24.220Z,53.20
2018-04-24T19:04:52.901Z,53.40
2018-04-24T19:07:22.350Z,53.30
2018-04-24T19:09:51.027Z,53.40
2018-04-24T19:12:20.141Z,53.60
2018-04-24T19:14:48.454Z,53.70
2018-04-24T19:17:16.841Z,53.70
2018-04-24T19:19:50.477Z,54.00
2018-04-24T19:22:18.832Z,54.00
2018-04-24T19:24:52.752Z,54.30
2018-04-24T19:27:21.337Z,54.50
2018-04-24T19:29:49.722Z,54.70
2018-04-24T19:32:23.545Z,55.00
2018-04-24T19:34:51.869Z,55.10
2018-04-24T19:37:21.271Z,55.30
2018-04-24T19:39:56.060Z,55.60
2018-04-24T19:42:24.741Z,55.70
2018-04-24T19:44:53.089Z,55.70
2018-04-24T19:47:21.421Z,55.80
2018-04-24T19:49:55.434Z,55.90
2018-04-24T19:52:23.827Z,56.10
2018-04-24T19:54:57.718Z,56.10
2018-04-24T19:57:26.135Z,56.30
2018-04-24T19:59:54.429Z,56.30
2018-04-24T20:02:23.574Z,56.80
2018-04-24T20:04:52.012Z,56.80
2018-04-24T20:07:20.377Z,56.90
2018-04-24T20:09:48.723Z,57.10
2018-04-24T20:12:17.830Z,57.40
2018-04-24T20:14:46.140Z,57.50
2018-04-24T20:17:15.470Z,57.50
2018-04-24T20:19:43.761Z,57.70
2018-04-24T20:22:12.224Z,57.80
2018-04-24T20:24:40.523Z,58.00
2018-04-24T20:27:08.844Z,58.20
2018-04-24T20:29:37.131Z,58.40
2018-04-24T20:32:05.386Z,58.70
2018-04-24T20:34:33.708Z,58.80
2018-04-24T20:37:02.014Z,59.10
2018-04-24T20:39:30.371Z,59.10
2018-04-24T20:41:58.635Z,59.30
2018-04-24T20:44:26.989Z,59.30
2018-04-24T20:46:55.261Z,59.40
2018-04-24T20:49:24.301Z,59.50
2018-04-24T20:51:52.648Z,59.60
2018-04-24T20:54:20.952Z,59.60
2018-04-24T20:56:49.332Z,59.70
2018-04-24T20:59:17.628Z,59.80
2018-04-24T21:01:45.936Z,59.90
2018-04-24T21:04:14.218Z,59.80
2018-04-24T21:06:42.502Z,59.90
2018-04-24T21:09:10.815Z,60.10
2018-04-24T21:11:39.104Z,60.00
2018-04-24T21:14:08.210Z,60.00
2018-04-24T21:16:36.528Z,60.10
2018-04-24T21:19:05.622Z,60.30
2018-04-24T21:21:34.662Z,60.30
2018-04-24T21:24:02.974Z,60.30
2018-04-24T21:26:31.277Z,60.50
2018-04-24T21:29:00.304Z,60.50
2018-04-24T21:31:28.617Z,60.60
2018-04-24T21:33:56.875Z,60.80
2018-04-24T21:36:25.193Z,60.90
2018-04-24T21:38:53.474Z,61.10
2018-04-24T21:41:22.548Z,61.20
2018-04-24T21:43:50.837Z,61.20
2018-04-24T21:46:19.871Z,61.30
2018-04-24T21:48:48.177Z,61.30
2018-04-24T21:51:16.443Z,61.30
2018-04-24T21:53:44.771Z,61.30
2018-04-24T21:56:13.037Z,62.10
2018-04-24T21:58:41.338Z,61.30
2018-04-24T22:01:10.347Z,61.40
2018-04-24T22:03:38.652Z,61.30
2018-04-24T22:06:06.933Z,61.30
2018-04-24T22:08:35.206Z,62.10
2018-04-24T22:11:03.523Z,61.50
2018-04-24T22:13:31.818Z,61.40
2018-04-24T22:16:03.411Z,61.40
2018-04-24T22:18:31.701Z,61.50
2018-04-24T22:21:00.075Z,61.70
2018-04-24T22:23:28.308Z,61.70
2018-04-24T22:25:57.388Z,61.70
2018-04-24T22:28:25.689Z,61.70
2018-04-24T22:30:54.722Z,61.80
2018-04-24T22:33:22.992Z,61.70
2018-04-24T22:35:51.296Z,61.30
2018-04-24T22:38:19.559Z,61.80
2018-04-24T22:40:47.879Z,62.00
2018-04-24T22:43:16.157Z,62.10
2018-04-24T22:45:44.433Z,62.20
2018-04-24T22:48:12.744Z,63.00
2018-04-24T22:50:41.770Z,63.00
2018-04-24T22:53:10.076Z,62.60
2018-04-24T22:55:38.346Z,62.70
2018-04-24T22:58:06.661Z,62.80
2018-04-24T23:00:34.923Z,62.90
2018-04-24T23:03:03.190Z,63.00
2018-04-24T23:05:31.564Z,62.60
2018-04-24T23:07:59.815Z,63.10
2018-04-24T23:10:40.014Z,63.40
2018-04-24T23:13:26.822Z,63.30
2018-04-24T23:16:13.082Z,63.30
2018-04-24T23:18:59.046Z,63.30
2018-04-24T23:21:32.926Z,63.30
2018-04-24T23:24:01.201Z,63.60
2018-04-24T23:26:29.483Z,63.80
2018-04-24T23:28:57.782Z,64.00
2018-04-24T23:31:26.036Z,64.10
2018-04-24T23:33:54.342Z,64.20
2018-04-24T23:36:22.600Z,65.00
2018-04-24T23:38:50.934Z,64.30
2018-04-24T23:41:19.181Z,64.80
2018-04-24T23:43:47.442Z,64.60
2018-04-24T23:46:16.730Z,64.70
2018-04-24T23:48:45.006Z,64.80
2018-04-24T23:51:13.317Z,65.00
2018-04-24T23:53:41.586Z,65.00
2018-04-24T23:56:09.851Z,65.10
2018-04-24T23:58:38.913Z,65.40
